sensor_id;sensor_type;location;lat;lon;timestamp;pressure;altitude;pressure_sealevel;temperature;humidity
57801;BME280;43627;42.728;23.256;2023-04-22T00:01:01;94679.25;;;7.86;100.00
57801;BME280;43627;42.728;23.256;2023-04-22T00:03:28;94679.13;;;7.90;100.00
57801;BME280;43627;42.728;23.256;2023-04-22T00:05:55;94657.69;;;7.73;100.00
57801;BME280;43627;42.728;23.256;2023-04-22T00:08:22;94670.53;;;7.82;100.00
57801;BME280;43627;42.728;23.256;2023-04-22T00:10:49;94653.91;;;7.62;100.00
57801;BME280;43627;42.728;23.256;2023-04-22T00:13:15;94684.38;;;7.75;100.00
57801;BME280;43627;42.728;23.256;2023-04-22T00:15:42;94686.03;;;7.72;100.00
57801;BME280;43627;42.728;23.256;2023-04-22T00:18:08;94680.44;;;7.76;100.00
57801;BME280;43627;42.728;23.256;2023-04-22T00:20:42;94677.16;;;7.72;100.00
57801;BME280;43627;42.728;23.256;2023-04-22T00:23:10;94685.72;;;7.61;100.00
57801;BME280;43627;42.728;23.256;2023-04-22T00:25:38;94685.19;;;7.35;100.00
57801;BME280;43627;42.728;23.256;2023-04-22T00:28:05;94681.22;;;7.18;100.00
57801;BME280;43627;42.728;23.256;2023-04-22T00:30:32;94687.97;;;7.13;100.00
57801;BME280;43627;42.728;23.256;2023-04-22T00:32:58;94692.34;;;7.11;100.00
57801;BME280;43627;42.728;23.256;2023-04-22T00:35:25;94664.34;;;6.83;100.00
57801;BME280;43627;42.728;23.256;2023-04-22T00:37:52;94666.88;;;6.77;100.00
57801;BME280;43627;42.728;23.256;2023-04-22T00:40:19;94684.47;;;6.73;100.00
57801;BME280;43627;42.728;23.256;2023-04-22T00:42:49;94685.34;;;6.70;100.00
57801;BME280;43627;42.728;23.256;2023-04-22T00:45:18;94685.47;;;6.44;100.00
57801;BME280;43627;42.728;23.256;2023-04-22T00:47:45;94682.34;;;6.46;100.00
57801;BME280;43627;42.728;23.256;2023-04-22T00:50:12;94673.00;;;6.25;100.00
57801;BME280;43627;42.728;23.256;2023-04-22T00:52:39;94693.69;;;6.32;100.00
57801;BME280;43627;42.728;23.256;2023-04-22T00:55:07;94690.59;;;6.20;100.00
57801;BME280;43627;42.728;23.256;2023-04-22T00:57:34;94699.78;;;6.23;100.00
57801;BME280;43627;42.728;23.256;2023-04-22T01:00:02;94697.81;;;6.23;100.00
57801;BME280;43627;42.728;23.256;2023-04-22T01:02:30;94688.63;;;6.21;100.00
57801;BME280;43627;42.728;23.256;2023-04-22T01:04:57;94679.69;;;6.11;100.00
57801;BME280;43627;42.728;23.256;2023-04-22T01:07:24;94692.69;;;6.04;100.00
57801;BME280;43627;42.728;23.256;2023-04-22T01:09:51;94687.53;;;5.84;100.00
57801;BME280;43627;42.728;23.256;2023-04-22T01:12:18;94689.69;;;6.01;100.00
57801;BME280;43627;42.728;23.256;2023-04-22T01:14:45;94696.16;;;6.04;100.00
57801;BME280;43627;42.728;23.256;2023-04-22T01:17:12;94680.59;;;5.95;100.00
57801;BME280;43627;42.728;23.256;2023-04-22T01:19:40;94690.56;;;5.98;100.00
57801;BME280;43627;42.728;23.256;2023-04-22T01:22:10;94680.41;;;5.90;100.00
57801;BME280;43627;42.728;23.256;2023-04-22T01:24:38;94686.78;;;5.96;100.00
57801;BME280;43627;42.728;23.256;2023-04-22T01:27:05;94687.75;;;5.89;100.00
57801;BME280;43627;42.728;23.256;2023-04-22T01:29:33;94666.38;;;5.69;100.00
57801;BME280;43627;42.728;23.256;2023-04-22T01:32:02;94683.13;;;5.77;100.00
57801;BME280;43627;42.728;23.256;2023-04-22T01:34:30;94696.16;;;5.69;100.00
57801;BME280;43627;42.728;23.256;2023-04-22T01:36:57;94701.56;;;5.57;100.00
57801;BME280;43627;42.728;23.256;2023-04-22T01:39:24;94700.06;;;5.56;100.00
57801;BME280;43627;42.728;23.256;2023-04-22T01:41:50;94681.91;;;5.43;100.00
57801;BME280;43627;42.728;23.256;2023-04-22T01:44:17;94697.56;;;5.61;100.00
57801;BME280;43627;42.728;23.256;2023-04-22T01:46:45;94685.91;;;5.52;100.00
57801;BME280;43627;42.728;23.256;2023-04-22T01:49:11;94687.75;;;5.42;100.00
57801;BME280;43627;42.728;23.256;2023-04-22T01:51:38;94682.66;;;5.44;100.00
57801;BME280;43627;42.728;23.256;2023-04-22T01:54:05;94684.03;;;5.49;100.00
57801;BME280;43627;42.728;23.256;2023-04-22T01:56:32;94667.41;;;5.37;100.00
57801;BME280;43627;42.728;23.256;2023-04-22T01:58:59;94684.69;;;5.53;100.00
57801;BME280;43627;42.728;23.256;2023-04-22T02:01:25;94689.97;;;5.56;100.00
57801;BME280;43627;42.728;23.256;2023-04-22T02:03:52;94686.31;;;5.63;100.00
57801;BME280;43627;42.728;23.256;2023-04-22T02:06:19;94692.91;;;5.62;100.00
57801;BME280;43627;42.728;23.256;2023-04-22T02:08:46;94690.84;;;5.66;100.00
57801;BME280;43627;42.728;23.256;2023-04-22T02:11:12;94686.72;;;5.74;100.00
57801;BME280;43627;42.728;23.256;2023-04-22T02:13:40;94659.97;;;5.76;100.00
57801;BME280;43627;42.728;23.256;2023-04-22T02:16:07;94679.84;;;5.95;100.00
57801;BME280;43627;42.728;23.256;2023-04-22T02:18:34;94685.78;;;6.03;100.00
57801;BME280;43627;42.728;23.256;2023-04-22T02:21:01;94682.41;;;6.11;100.00
57801;BME280;43627;42.728;23.256;2023-04-22T02:23:28;94683.53;;;6.23;100.00
57801;BME280;43627;42.728;23.256;2023-04-22T02:25:55;94684.56;;;6.16;100.00
57801;BME280;43627;42.728;23.256;2023-04-22T02:28:21;94686.13;;;6.26;100.00
57801;BME280;43627;42.728;23.256;2023-04-22T02:30:48;94678.56;;;6.43;100.00
57801;BME280;43627;42.728;23.256;2023-04-22T02:33:15;94669.38;;;6.41;100.00
57801;BME280;43627;42.728;23.256;2023-04-22T02:35:41;94689.16;;;6.50;100.00
57801;BME280;43627;42.728;23.256;2023-04-22T02:38:09;94678.13;;;6.45;100.00
57801;BME280;43627;42.728;23.256;2023-04-22T02:40:36;94685.69;;;6.50;100.00
57801;BME280;43627;42.728;23.256;2023-04-22T02:43:03;94681.00;;;6.50;100.00
57801;BME280;43627;42.728;23.256;2023-04-22T02:45:29;94684.22;;;6.58;100.00
57801;BME280;43627;42.728;23.256;2023-04-22T02:47:56;94694.69;;;6.47;100.00
57801;BME280;43627;42.728;23.256;2023-04-22T02:50:23;94688.19;;;6.44;100.00
57801;BME280;43627;42.728;23.256;2023-04-22T02:52:50;94699.53;;;6.52;100.00
57801;BME280;43627;42.728;23.256;2023-04-22T02:55:16;94689.78;;;6.54;100.00
57801;BME280;43627;42.728;23.256;2023-04-22T02:57:43;94687.50;;;6.53;100.00
57801;BME280;43627;42.728;23.256;2023-04-22T03:00:10;94685.22;;;6.51;100.00
57801;BME280;43627;42.728;23.256;2023-04-22T03:02:37;94700.69;;;6.64;100.00
57801;BME280;43627;42.728;23.256;2023-04-22T03:05:04;94696.31;;;6.66;100.00
57801;BME280;43627;42.728;23.256;2023-04-22T03:07:31;94687.19;;;6.51;100.00
57801;BME280;43627;42.728;23.256;2023-04-22T03:09:58;94697.31;;;6.59;100.00
57801;BME280;43627;42.728;23.256;2023-04-22T03:12:24;94711.31;;;6.58;100.00
57801;BME280;43627;42.728;23.256;2023-04-22T03:14:51;94707.66;;;6.52;100.00
57801;BME280;43627;42.728;23.256;2023-04-22T03:17:18;94698.91;;;6.48;100.00
57801;BME280;43627;42.728;23.256;2023-04-22T03:19:46;94704.63;;;6.50;100.00
57801;BME280;43627;42.728;23.256;2023-04-22T03:22:12;94711.63;;;6.60;100.00
57801;BME280;43627;42.728;23.256;2023-04-22T03:24:39;94701.31;;;6.46;100.00
57801;BME280;43627;42.728;23.256;2023-04-22T03:27:05;94710.00;;;6.41;100.00
57801;BME280;43627;42.728;23.256;2023-04-22T03:29:33;94713.75;;;6.43;100.00
57801;BME280;43627;42.728;23.256;2023-04-22T03:31:59;94714.13;;;6.33;100.00
57801;BME280;43627;42.728;23.256;2023-04-22T03:34:26;94707.59;;;6.43;100.00
57801;BME280;43627;42.728;23.256;2023-04-22T03:36:53;94707.94;;;6.45;100.00
57801;BME280;43627;42.728;23.256;2023-04-22T03:39:19;94720.00;;;6.53;100.00
57801;BME280;43627;42.728;23.256;2023-04-22T03:41:46;94715.78;;;6.52;100.00
57801;BME280;43627;42.728;23.256;2023-04-22T03:44:13;94716.06;;;6.45;100.00
57801;BME280;43627;42.728;23.256;2023-04-22T03:46:39;94718.63;;;6.48;100.00
57801;BME280;43627;42.728;23.256;2023-04-22T03:49:07;94712.69;;;6.41;100.00
57801;BME280;43627;42.728;23.256;2023-04-22T03:51:33;94717.34;;;6.40;100.00
57801;BME280;43627;42.728;23.256;2023-04-22T03:54:00;94719.31;;;6.40;100.00
57801;BME280;43627;42.728;23.256;2023-04-22T03:56:27;94706.38;;;6.22;100.00
57801;BME280;43627;42.728;23.256;2023-04-22T03:58:53;94720.38;;;6.20;100.00
57801;BME280;43627;42.728;23.256;2023-04-22T04:01:20;94733.66;;;6.27;100.00
57801;BME280;43627;42.728;23.256;2023-04-22T04:03:46;94739.91;;;6.37;100.00
57801;BME280;43627;42.728;23.256;2023-04-22T04:06:14;94740.16;;;6.30;100.00
57801;BME280;43627;42.728;23.256;2023-04-22T04:08:40;94743.06;;;6.36;100.00
57801;BME280;43627;42.728;23.256;2023-04-22T04:11:08;94734.50;;;6.37;100.00
57801;BME280;43627;42.728;23.256;2023-04-22T04:13:35;94740.84;;;6.43;100.00
57801;BME280;43627;42.728;23.256;2023-04-22T04:16:01;94739.09;;;6.49;100.00
57801;BME280;43627;42.728;23.256;2023-04-22T04:18:29;94744.28;;;6.56;100.00
57801;BME280;43627;42.728;23.256;2023-04-22T04:20:56;94751.38;;;6.63;100.00
57801;BME280;43627;42.728;23.256;2023-04-22T04:23:22;94745.94;;;6.63;100.00
57801;BME280;43627;42.728;23.256;2023-04-22T04:25:49;94757.81;;;6.78;100.00
57801;BME280;43627;42.728;23.256;2023-04-22T04:28:18;94753.16;;;6.79;100.00
57801;BME280;43627;42.728;23.256;2023-04-22T04:30:44;94757.56;;;6.85;100.00
57801;BME280;43627;42.728;23.256;2023-04-22T04:33:11;94769.22;;;6.95;100.00
57801;BME280;43627;42.728;23.256;2023-04-22T04:35:38;94767.66;;;6.85;100.00
57801;BME280;43627;42.728;23.256;2023-04-22T04:38:07;94758.88;;;6.81;100.00
57801;BME280;43627;42.728;23.256;2023-04-22T04:40:33;94768.00;;;6.96;100.00
57801;BME280;43627;42.728;23.256;2023-04-22T04:43:00;94766.38;;;6.99;100.00
57801;BME280;43627;42.728;23.256;2023-04-22T04:45:28;94773.69;;;7.11;100.00
57801;BME280;43627;42.728;23.256;2023-04-22T04:47:55;94751.44;;;7.25;100.00
57801;BME280;43627;42.728;23.256;2023-04-22T04:50:22;94782.00;;;7.57;100.00
57801;BME280;43627;42.728;23.256;2023-04-22T04:52:49;94770.88;;;8.22;100.00
57801;BME280;43627;42.728;23.256;2023-04-22T04:55:18;94789.03;;;9.59;100.00
57801;BME280;43627;42.728;23.256;2023-04-22T04:57:45;94798.97;;;10.38;100.00
57801;BME280;43627;42.728;23.256;2023-04-22T05:00:12;94797.16;;;11.27;91.92
57801;BME280;43627;42.728;23.256;2023-04-22T05:02:42;94794.63;;;11.82;80.87
57801;BME280;43627;42.728;23.256;2023-04-22T05:05:09;94796.59;;;11.67;80.00
57801;BME280;43627;42.728;23.256;2023-04-22T05:07:35;94781.72;;;12.18;77.84
57801;BME280;43627;42.728;23.256;2023-04-22T05:10:02;94791.53;;;13.11;72.17
57801;BME280;43627;42.728;23.256;2023-04-22T05:12:29;94784.19;;;13.49;68.93
57801;BME280;43627;42.728;23.256;2023-04-22T05:14:56;94802.44;;;13.89;63.40
57801;BME280;43627;42.728;23.256;2023-04-22T05:17:23;94788.69;;;13.52;60.77
57801;BME280;43627;42.728;23.256;2023-04-22T05:19:50;94803.03;;;13.41;61.42
57801;BME280;43627;42.728;23.256;2023-04-22T05:22:16;94815.31;;;13.46;61.79
57801;BME280;43627;42.728;23.256;2023-04-22T05:24:43;94805.56;;;13.19;61.93
57801;BME280;43627;42.728;23.256;2023-04-22T05:27:10;94807.63;;;13.04;61.93
57801;BME280;43627;42.728;23.256;2023-04-22T05:29:37;94808.84;;;13.23;61.43
57801;BME280;43627;42.728;23.256;2023-04-22T05:32:06;94797.91;;;13.55;59.70
57801;BME280;43627;42.728;23.256;2023-04-22T05:34:34;94808.81;;;12.56;61.95
57801;BME280;43627;42.728;23.256;2023-04-22T05:37:02;94813.13;;;12.08;68.03
57801;BME280;43627;42.728;23.256;2023-04-22T05:39:29;94806.44;;;12.09;67.65
57801;BME280;43627;42.728;23.256;2023-04-22T05:41:55;94797.28;;;12.12;70.16
57801;BME280;43627;42.728;23.256;2023-04-22T05:44:22;94810.06;;;12.20;73.94
57801;BME280;43627;42.728;23.256;2023-04-22T05:46:49;94807.19;;;12.44;70.60
57801;BME280;43627;42.728;23.256;2023-04-22T05:49:16;94806.81;;;12.57;70.63
57801;BME280;43627;42.728;23.256;2023-04-22T05:51:42;94810.59;;;12.59;70.24
57801;BME280;43627;42.728;23.256;2023-04-22T05:54:09;94806.53;;;12.96;69.38
57801;BME280;43627;42.728;23.256;2023-04-22T05:56:36;94805.84;;;13.01;68.65
57801;BME280;43627;42.728;23.256;2023-04-22T05:59:02;94809.34;;;13.01;69.93
57801;BME280;43627;42.728;23.256;2023-04-22T06:01:29;94787.69;;;13.24;67.31
57801;BME280;43627;42.728;23.256;2023-04-22T06:03:56;94803.50;;;13.14;65.04
57801;BME280;43627;42.728;23.256;2023-04-22T06:06:23;94798.75;;;12.88;66.85
57801;BME280;43627;42.728;23.256;2023-04-22T06:08:50;94790.78;;;13.11;67.26
57801;BME280;43627;42.728;23.256;2023-04-22T06:11:17;94795.63;;;13.22;67.41
57801;BME280;43627;42.728;23.256;2023-04-22T06:13:43;94806.16;;;13.29;66.33
57801;BME280;43627;42.728;23.256;2023-04-22T06:16:10;94794.66;;;13.51;64.46
57801;BME280;43627;42.728;23.256;2023-04-22T06:18:37;94803.63;;;13.51;63.64
57801;BME280;43627;42.728;23.256;2023-04-22T06:21:04;94804.59;;;13.74;65.08
57801;BME280;43627;42.728;23.256;2023-04-22T06:23:30;94803.25;;;13.95;62.11
57801;BME280;43627;42.728;23.256;2023-04-22T06:25:57;94794.84;;;13.73;64.91
57801;BME280;43627;42.728;23.256;2023-04-22T06:28:24;94795.59;;;13.73;63.54
57801;BME280;43627;42.728;23.256;2023-04-22T06:30:50;94800.13;;;13.77;64.73
57801;BME280;43627;42.728;23.256;2023-04-22T06:33:17;94808.06;;;14.12;62.67
57801;BME280;43627;42.728;23.256;2023-04-22T06:35:44;94803.63;;;14.14;62.92
57801;BME280;43627;42.728;23.256;2023-04-22T06:38:11;94801.03;;;13.99;62.41
57801;BME280;43627;42.728;23.256;2023-04-22T06:40:38;94800.09;;;14.08;62.87
57801;BME280;43627;42.728;23.256;2023-04-22T06:43:05;94804.28;;;14.41;62.17
57801;BME280;43627;42.728;23.256;2023-04-22T06:45:32;94799.88;;;13.80;64.27
57801;BME280;43627;42.728;23.256;2023-04-22T06:47:58;94804.31;;;14.04;64.75
57801;BME280;43627;42.728;23.256;2023-04-22T06:50:25;94807.06;;;14.46;63.19
57801;BME280;43627;42.728;23.256;2023-04-22T06:52:53;94806.91;;;14.61;62.51
57801;BME280;43627;42.728;23.256;2023-04-22T06:55:20;94806.94;;;14.72;61.30
57801;BME280;43627;42.728;23.256;2023-04-22T06:57:47;94805.81;;;14.47;63.26
57801;BME280;43627;42.728;23.256;2023-04-22T07:00:14;94815.63;;;14.65;62.50
57801;BME280;43627;42.728;23.256;2023-04-22T07:02:40;94812.47;;;14.35;64.93
57801;BME280;43627;42.728;23.256;2023-04-22T07:05:07;94812.75;;;14.43;64.95
57801;BME280;43627;42.728;23.256;2023-04-22T07:07:34;94810.03;;;14.43;64.88
57801;BME280;43627;42.728;23.256;2023-04-22T07:10:01;94817.88;;;14.67;65.23
57801;BME280;43627;42.728;23.256;2023-04-22T07:12:29;94800.72;;;14.72;65.09
57801;BME280;43627;42.728;23.256;2023-04-22T07:14:56;94811.22;;;14.79;64.47
57801;BME280;43627;42.728;23.256;2023-04-22T07:17:22;94810.81;;;14.49;64.77
57801;BME280;43627;42.728;23.256;2023-04-22T07:19:49;94805.88;;;14.53;66.39
57801;BME280;43627;42.728;23.256;2023-04-22T07:22:16;94812.47;;;14.83;66.87
57801;BME280;43627;42.728;23.256;2023-04-22T07:24:43;94805.94;;;14.75;64.12
57801;BME280;43627;42.728;23.256;2023-04-22T07:27:09;94801.53;;;14.95;63.03
57801;BME280;43627;42.728;23.256;2023-04-22T07:29:36;94810.91;;;15.48;60.83
57801;BME280;43627;42.728;23.256;2023-04-22T07:32:03;94815.97;;;15.83;59.48
57801;BME280;43627;42.728;23.256;2023-04-22T07:34:30;94806.44;;;15.78;58.92
57801;BME280;43627;42.728;23.256;2023-04-22T07:36:57;94805.72;;;15.94;57.63
57801;BME280;43627;42.728;23.256;2023-04-22T07:39:24;94799.19;;;16.14;56.89
57801;BME280;43627;42.728;23.256;2023-04-22T07:41:50;94810.94;;;15.98;54.49
57801;BME280;43627;42.728;23.256;2023-04-22T07:44:18;94804.22;;;15.93;53.35
57801;BME280;43627;42.728;23.256;2023-04-22T07:46:47;94801.22;;;16.03;53.76
57801;BME280;43627;42.728;23.256;2023-04-22T07:49:15;94806.44;;;16.12;53.43
57801;BME280;43627;42.728;23.256;2023-04-22T07:51:43;94792.94;;;16.08;52.32
57801;BME280;43627;42.728;23.256;2023-04-22T07:54:10;94809.69;;;16.05;51.92
57801;BME280;43627;42.728;23.256;2023-04-22T07:56:37;94807.44;;;16.09;52.18
57801;BME280;43627;42.728;23.256;2023-04-22T07:59:04;94799.66;;;16.29;50.43
57801;BME280;43627;42.728;23.256;2023-04-22T08:01:31;94808.19;;;16.20;50.38
57801;BME280;43627;42.728;23.256;2023-04-22T08:03:58;94798.38;;;16.36;50.79
57801;BME280;43627;42.728;23.256;2023-04-22T08:06:26;94794.34;;;16.54;49.28
57801;BME280;43627;42.728;23.256;2023-04-22T08:08:53;94801.56;;;16.63;49.36
57801;BME280;43627;42.728;23.256;2023-04-22T08:11:20;94798.56;;;16.77;50.47
57801;BME280;43627;42.728;23.256;2023-04-22T08:13:47;94791.16;;;17.08;48.21
57801;BME280;43627;42.728;23.256;2023-04-22T08:16:13;94785.94;;;16.99;49.00
57801;BME280;43627;42.728;23.256;2023-04-22T08:18:40;94782.00;;;16.89;49.17
57801;BME280;43627;42.728;23.256;2023-04-22T08:21:07;94796.75;;;16.91;49.82
57801;BME280;43627;42.728;23.256;2023-04-22T08:23:34;94793.69;;;17.00;49.32
57801;BME280;43627;42.728;23.256;2023-04-22T08:26:02;94790.50;;;16.91;48.29
57801;BME280;43627;42.728;23.256;2023-04-22T08:28:28;94787.81;;;16.63;48.31
57801;BME280;43627;42.728;23.256;2023-04-22T08:30:55;94771.78;;;16.67;48.14
57801;BME280;43627;42.728;23.256;2023-04-22T08:33:22;94771.88;;;16.39;48.66
57801;BME280;43627;42.728;23.256;2023-04-22T08:35:52;94786.16;;;16.32;48.83
57801;BME280;43627;42.728;23.256;2023-04-22T08:38:19;94775.16;;;16.32;49.81
57801;BME280;43627;42.728;23.256;2023-04-22T08:40:45;94770.28;;;16.66;48.75
57801;BME280;43627;42.728;23.256;2023-04-22T08:43:13;94760.28;;;16.57;48.37
57801;BME280;43627;42.728;23.256;2023-04-22T08:45:41;94773.78;;;16.72;48.72
57801;BME280;43627;42.728;23.256;2023-04-22T08:48:08;94763.75;;;16.80;47.09
57801;BME280;43627;42.728;23.256;2023-04-22T08:50:37;94765.19;;;16.98;46.61
57801;BME280;43627;42.728;23.256;2023-04-22T08:53:06;94760.38;;;17.04;46.43
57801;BME280;43627;42.728;23.256;2023-04-22T08:55:34;94766.59;;;17.10;47.11
57801;BME280;43627;42.728;23.256;2023-04-22T08:58:03;94757.94;;;17.36;48.48
57801;BME280;43627;42.728;23.256;2023-04-22T09:00:32;94753.13;;;17.01;47.25
57801;BME280;43627;42.728;23.256;2023-04-22T09:03:01;94756.50;;;16.66;47.82
57801;BME280;43627;42.728;23.256;2023-04-22T09:05:31;94760.97;;;16.85;47.68
57801;BME280;43627;42.728;23.256;2023-04-22T09:07:59;94752.78;;;16.69;47.75
57801;BME280;43627;42.728;23.256;2023-04-22T09:10:28;94750.88;;;16.41;47.74
57801;BME280;43627;42.728;23.256;2023-04-22T09:12:57;94746.81;;;16.53;46.99
57801;BME280;43627;42.728;23.256;2023-04-22T09:15:24;94758.88;;;16.28;48.15
57801;BME280;43627;42.728;23.256;2023-04-22T09:17:51;94754.59;;;16.49;50.19
57801;BME280;43627;42.728;23.256;2023-04-22T09:20:18;94753.28;;;17.14;47.08
57801;BME280;43627;42.728;23.256;2023-04-22T09:22:46;94746.00;;;17.22;45.92
57801;BME280;43627;42.728;23.256;2023-04-22T09:25:17;94756.06;;;17.50;46.05
57801;BME280;43627;42.728;23.256;2023-04-22T09:27:52;94749.22;;;17.26;44.01
57801;BME280;43627;42.728;23.256;2023-04-22T09:30:32;94743.16;;;17.33;43.66
57801;BME280;43627;42.728;23.256;2023-04-22T09:33:01;94744.28;;;17.13;47.27
57801;BME280;43627;42.728;23.256;2023-04-22T09:35:29;94733.13;;;17.72;44.06
57801;BME280;43627;42.728;23.256;2023-04-22T09:37:58;94731.16;;;18.21;44.20
57801;BME280;43627;42.728;23.256;2023-04-22T09:40:26;94737.28;;;18.57;43.70
57801;BME280;43627;42.728;23.256;2023-04-22T09:42:55;94733.44;;;18.66;43.62
57801;BME280;43627;42.728;23.256;2023-04-22T09:47:54;94735.16;;;17.95;43.92
57801;BME280;43627;42.728;23.256;2023-04-22T09:50:24;94739.03;;;17.16;43.45
57801;BME280;43627;42.728;23.256;2023-04-22T09:52:57;94736.72;;;16.67;43.62
57801;BME280;43627;42.728;23.256;2023-04-22T09:55:25;94741.34;;;16.42;43.71
57801;BME280;43627;42.728;23.256;2023-04-22T09:57:53;94739.69;;;16.11;44.32
57801;BME280;43627;42.728;23.256;2023-04-22T10:00:27;94743.41;;;16.19;43.39
57801;BME280;43627;42.728;23.256;2023-04-22T10:02:54;94735.47;;;15.82;43.10
57801;BME280;43627;42.728;23.256;2023-04-22T10:05:21;94731.69;;;16.13;41.23
57801;BME280;43627;42.728;23.256;2023-04-22T10:07:48;94726.44;;;16.04;41.38
57801;BME280;43627;42.728;23.256;2023-04-22T10:10:15;94725.50;;;15.68;43.31
57801;BME280;43627;42.728;23.256;2023-04-22T10:12:42;94719.47;;;15.41;43.65
57801;BME280;43627;42.728;23.256;2023-04-22T10:15:10;94722.22;;;15.53;43.05
57801;BME280;43627;42.728;23.256;2023-04-22T10:17:37;94718.97;;;15.82;41.99
57801;BME280;43627;42.728;23.256;2023-04-22T10:20:10;94720.59;;;16.41;42.05
57801;BME280;43627;42.728;23.256;2023-04-22T10:22:41;94705.94;;;16.74;42.88
57801;BME280;43627;42.728;23.256;2023-04-22T10:25:13;94711.59;;;16.93;41.26
57801;BME280;43627;42.728;23.256;2023-04-22T10:28:04;94706.53;;;16.50;40.81
57801;BME280;43627;42.728;23.256;2023-04-22T10:30:34;94700.41;;;16.22;40.25
57801;BME280;43627;42.728;23.256;2023-04-22T10:36:18;94694.56;;;16.95;40.77
57801;BME280;43627;42.728;23.256;2023-04-22T10:41:32;94702.91;;;16.83;40.86
57801;BME280;43627;42.728;23.256;2023-04-22T10:44:00;94701.41;;;16.82;41.67
57801;BME280;43627;42.728;23.256;2023-04-22T10:49:10;94701.53;;;17.01;40.53
57801;BME280;43627;42.728;23.256;2023-04-22T10:51:42;94700.66;;;16.82;40.47
57801;BME280;43627;42.728;23.256;2023-04-22T10:57:02;94688.91;;;16.76;40.36
57801;BME280;43627;42.728;23.256;2023-04-22T10:59:30;94675.38;;;16.83;40.52
57801;BME280;43627;42.728;23.256;2023-04-22T11:02:15;94685.19;;;16.68;40.40
57801;BME280;43627;42.728;23.256;2023-04-22T11:04:42;94687.56;;;16.94;39.66
57801;BME280;43627;42.728;23.256;2023-04-22T11:15:08;94707.16;;;16.10;43.79
57801;BME280;43627;42.728;23.256;2023-04-22T11:17:37;94698.47;;;15.94;44.29
57801;BME280;43627;42.728;23.256;2023-04-22T11:20:05;94700.75;;;15.57;44.39
57801;BME280;43627;42.728;23.256;2023-04-22T11:22:37;94705.25;;;15.49;44.30
57801;BME280;43627;42.728;23.256;2023-04-22T11:25:04;94723.47;;;15.52;44.48
57801;BME280;43627;42.728;23.256;2023-04-22T11:27:32;94716.97;;;15.43;45.14
57801;BME280;43627;42.728;23.256;2023-04-22T11:32:37;94741.22;;;15.39;46.18
57801;BME280;43627;42.728;23.256;2023-04-22T11:35:06;94722.47;;;15.38;45.81
57801;BME280;43627;42.728;23.256;2023-04-22T11:37:44;94743.72;;;15.49;47.13
57801;BME280;43627;42.728;23.256;2023-04-22T11:40:13;94730.22;;;15.45;47.88
57801;BME280;43627;42.728;23.256;2023-04-22T11:42:57;94744.66;;;15.12;49.75
57801;BME280;43627;42.728;23.256;2023-04-22T11:45:25;94751.72;;;15.35;48.44
57801;BME280;43627;42.728;23.256;2023-04-22T11:47:53;94771.19;;;15.49;46.90
57801;BME280;43627;42.728;23.256;2023-04-22T11:50:27;94742.72;;;15.46;48.23
57801;BME280;43627;42.728;23.256;2023-04-22T11:53:03;94742.72;;;15.57;49.30
57801;BME280;43627;42.728;23.256;2023-04-22T11:55:34;94758.22;;;15.71;49.59
57801;BME280;43627;42.728;23.256;2023-04-22T11:58:13;94746.72;;;15.56;49.86
57801;BME280;43627;42.728;23.256;2023-04-22T12:00:49;94745.19;;;15.33;50.60
57801;BME280;43627;42.728;23.256;2023-04-22T12:03:16;94780.38;;;15.18;51.91
57801;BME280;43627;42.728;23.256;2023-04-22T12:05:56;94757.56;;;14.83;52.70
57801;BME280;43627;42.728;23.256;2023-04-22T12:08:37;94764.19;;;14.49;56.18
57801;BME280;43627;42.728;23.256;2023-04-22T12:11:09;94766.09;;;14.32;57.29
57801;BME280;43627;42.728;23.256;2023-04-22T12:16:05;94773.47;;;14.14;56.16
57801;BME280;43627;42.728;23.256;2023-04-22T12:18:37;94769.53;;;14.26;56.27
57801;BME280;43627;42.728;23.256;2023-04-22T12:21:09;94761.69;;;14.08;56.56
57801;BME280;43627;42.728;23.256;2023-04-22T12:26:15;94770.25;;;13.47;56.86
57801;BME280;43627;42.728;23.256;2023-04-22T12:28:43;94789.00;;;13.91;57.06
57801;BME280;43627;42.728;23.256;2023-04-22T12:31:10;94762.25;;;14.18;56.86
57801;BME280;43627;42.728;23.256;2023-04-22T12:33:38;94770.72;;;14.14;57.17
57801;BME280;43627;42.728;23.256;2023-04-22T12:36:06;94770.53;;;14.29;56.97
57801;BME280;43627;42.728;23.256;2023-04-22T12:38:33;94757.47;;;14.07;56.94
57801;BME280;43627;42.728;23.256;2023-04-22T12:41:00;94759.94;;;14.05;59.33
57801;BME280;43627;42.728;23.256;2023-04-22T12:43:28;94783.19;;;14.21;56.40
57801;BME280;43627;42.728;23.256;2023-04-22T12:45:55;94755.91;;;14.00;56.52
57801;BME280;43627;42.728;23.256;2023-04-22T12:48:21;94757.97;;;14.11;56.72
57801;BME280;43627;42.728;23.256;2023-04-22T12:50:48;94759.16;;;13.99;56.28
57801;BME280;43627;42.728;23.256;2023-04-22T12:53:15;94756.78;;;13.81;55.47
57801;BME280;43627;42.728;23.256;2023-04-22T12:55:42;94745.75;;;13.69;56.05
57801;BME280;43627;42.728;23.256;2023-04-22T12:58:11;94752.09;;;13.87;53.13
57801;BME280;43627;42.728;23.256;2023-04-22T13:00:39;94755.44;;;13.65;54.06
57801;BME280;43627;42.728;23.256;2023-04-22T13:03:06;94748.91;;;13.94;52.69
57801;BME280;43627;42.728;23.256;2023-04-22T13:05:33;94741.59;;;13.80;53.12
57801;BME280;43627;42.728;23.256;2023-04-22T13:08:00;94761.88;;;13.99;53.88
57801;BME280;43627;42.728;23.256;2023-04-22T13:10:33;94745.63;;;13.90;54.66
57801;BME280;43627;42.728;23.256;2023-04-22T13:13:00;94731.06;;;13.72;56.34
57801;BME280;43627;42.728;23.256;2023-04-22T13:15:47;94730.13;;;14.24;52.55
57801;BME280;43627;42.728;23.256;2023-04-22T13:18:20;94742.47;;;14.45;51.63
57801;BME280;43627;42.728;23.256;2023-04-22T13:20:48;94740.78;;;14.59;51.37
57801;BME280;43627;42.728;23.256;2023-04-22T13:23:15;94741.06;;;14.61;50.21